createdAt,value
2019-04-04T00:00:57.603Z,35.90
2019-04-04T00:03:27.961Z,36.00
2019-04-04T00:05:58.678Z,36.00
2019-04-04T00:08:31.668Z,35.60
2019-04-04T00:11:02.206Z,35.70
2019-04-04T00:13:33.138Z,35.80
2019-04-04T00:16:03.542Z,35.80
2019-04-04T00:18:34.222Z,35.70
2019-04-04T00:21:05.096Z,35.80
2019-04-04T00:23:37.663Z,35.80
2019-04-04T00:26:10.499Z,36.00
2019-04-04T00:28:39.935Z,35.90
2019-04-04T00:31:10.649Z,36.10
2019-04-04T00:33:41.061Z,36.30
2019-04-04T00:36:11.417Z,36.30
2019-04-04T00:38:42.189Z,37.00
2019-04-04T00:41:13.535Z,36.30
2019-04-04T00:43:44.315Z,36.40
2019-04-04T00:46:15.416Z,36.40
2019-04-04T00:48:45.758Z,36.70
2019-04-04T00:51:16.454Z,36.90
2019-04-04T00:53:46.814Z,37.10
2019-04-04T00:56:18.033Z,37.40
2019-04-04T00:58:51.640Z,37.70
2019-04-04T01:01:21.802Z,37.80
2019-04-04T01:03:52.150Z,37.90
2019-04-04T01:06:22.904Z,38.00
2019-04-04T01:08:53.655Z,38.10
2019-04-04T01:11:24.531Z,38.40
2019-04-04T01:13:57.566Z,38.90
2019-04-04T01:16:27.554Z,38.80
2019-04-04T01:18:58.428Z,38.60
2019-04-04T01:21:29.209Z,38.70
2019-04-04T01:23:59.644Z,39.40
2019-04-04T01:26:30.348Z,39.60
2019-04-04T01:29:01.089Z,39.70
2019-04-04T01:31:31.535Z,39.90
2019-04-04T01:34:01.939Z,40.30
2019-04-04T01:36:32.341Z,40.30
2019-04-04T01:39:03.185Z,40.60
2019-04-04T01:41:35.961Z,41.30
2019-04-04T01:44:05.670Z,41.00
2019-04-04T01:46:36.088Z,41.20
2019-04-04T01:49:06.804Z,41.40
2019-04-04T01:51:37.575Z,42.20
2019-04-04T01:54:08.223Z,41.80
2019-04-04T01:56:38.637Z,41.90
2019-04-04T01:59:10.222Z,41.90
2019-04-04T02:01:41.479Z,42.20
2019-04-04T02:04:11.845Z,42.40
2019-04-04T02:06:42.194Z,42.60
2019-04-04T02:09:12.995Z,42.60
2019-04-04T02:11:43.835Z,42.60
2019-04-04T02:14:14.608Z,42.50
2019-04-04T02:16:51.003Z,43.00
2019-04-04T02:19:18.188Z,43.10
2019-04-04T02:21:48.960Z,43.20
2019-04-04T02:24:19.746Z,44.00
2019-04-04T02:26:50.180Z,43.50
2019-04-04T02:29:20.636Z,44.30
2019-04-04T02:31:55.584Z,43.80
2019-04-04T02:34:26.250Z,44.00
2019-04-04T02:36:56.904Z,44.10
2019-04-04T02:39:27.370Z,44.20
2019-04-04T02:41:58.298Z,46.10
2019-04-04T02:44:31.736Z,46.10
2019-04-04T02:47:01.231Z,46.60
2019-04-04T02:49:31.925Z,47.40
2019-04-04T02:52:02.646Z,47.30
2019-04-04T02:54:33.025Z,47.30
2019-04-04T02:57:07.957Z,47.60
2019-04-04T02:59:36.090Z,47.70
2019-04-04T03:02:06.840Z,47.80
2019-04-04T03:04:37.175Z,47.60
2019-04-04T03:07:07.915Z,47.60
2019-04-04T03:09:41.944Z,47.90
2019-04-04T03:12:11.020Z,48.00
2019-04-04T03:14:41.446Z,48.30
2019-04-04T03:17:11.817Z,48.50
2019-04-04T03:19:43.560Z,48.60
2019-04-04T03:22:15.063Z,48.60
2019-04-04T03:24:45.556Z,49.30
2019-04-04T03:27:15.890Z,48.70
2019-04-04T03:29:46.969Z,48.60
2019-04-04T03:32:17.619Z,48.80
2019-04-04T03:34:50.470Z,48.80
2019-04-04T03:37:20.155Z,49.00
2019-04-04T03:39:53.124Z,49.00
2019-04-04T03:42:23.204Z,49.20
2019-04-04T03:44:54.424Z,49.30
2019-04-04T03:47:24.972Z,49.40
2019-04-04T03:49:57.656Z,49.40
2019-04-04T03:52:28.002Z,49.50
2019-04-04T03:54:58.338Z,49.70
2019-04-04T03:57:28.937Z,49.70
2019-04-04T03:59:59.335Z,49.80
2019-04-04T04:02:29.732Z,49.90
2019-04-04T04:05:01.801Z,50.10
2019-04-04T04:07:33.126Z,50.10
2019-04-04T04:10:04.622Z,50.20
2019-04-04T04:12:35.552Z,50.30
2019-04-04T04:15:06.850Z,50.30
2019-04-04T04:17:37.211Z,50.30
2019-04-04T04:20:07.580Z,50.60
2019-04-04T04:22:37.946Z,50.70
2019-04-04T04:25:08.375Z,50.80
2019-04-04T04:27:38.757Z,50.70
2019-04-04T04:30:09.105Z,51.10
2019-04-04T04:32:39.472Z,51.20
2019-04-04T04:35:09.828Z,51.10
2019-04-04T04:37:40.217Z,51.10
2019-04-04T04:40:13.638Z,51.10
2019-04-04T04:42:42.780Z,51.30
2019-04-04T04:45:13.553Z,51.50
2019-04-04T04:47:43.908Z,51.50
2019-04-04T04:50:14.282Z,51.10
2019-04-04T04:52:47.354Z,51.10
2019-04-04T04:55:17.028Z,51.30
2019-04-04T04:57:47.755Z,51.50
2019-04-04T05:00:18.112Z,51.80
2019-04-04T05:02:51.049Z,52.00
2019-04-04T05:05:21.576Z,51.90
2019-04-04T05:07:54.772Z,51.70
2019-04-04T05:10:24.709Z,51.70
2019-04-04T05:12:55.329Z,51.50
2019-04-04T05:15:25.971Z,51.60
2019-04-04T05:17:56.323Z,51.30
2019-04-04T05:20:29.704Z,51.30
2019-04-04T05:22:59.118Z,51.30
2019-04-04T05:25:31.277Z,51.50
2019-04-04T05:28:01.515Z,50.60
2019-04-04T05:30:32.132Z,50.10
2019-04-04T05:33:02.520Z,49.80
2019-04-04T05:35:33.485Z,49.40
2019-04-04T05:38:07.604Z,49.90
2019-04-04T05:40:37.233Z,49.10
2019-04-04T05:43:27.631Z,48.80
2019-04-04T05:45:58.246Z,48.80
2019-04-04T05:48:48.412Z,48.40
2019-04-04T05:51:18.751Z,48.10
2019-04-04T05:53:49.200Z,48.00
2019-04-04T05:56:19.874Z,47.30
2019-04-04T05:58:51.080Z,47.40
2019-04-04T06:01:23.445Z,47.30
2019-04-04T06:03:53.751Z,47.40
2019-04-04T06:06:24.501Z,47.00
2019-04-04T06:08:55.147Z,46.60
2019-04-04T06:11:25.542Z,46.60
2019-04-04T06:13:57.016Z,45.50
2019-04-04T06:16:28.273Z,45.30
2019-04-04T06:18:58.951Z,45.30
2019-04-04T06:21:29.305Z,44.80
2019-04-04T06:23:59.644Z,44.60
2019-04-04T06:26:30.011Z,44.50
2019-04-04T06:29:00.653Z,44.30
2019-04-04T06:31:31.106Z,44.10
2019-04-04T06:34:05.568Z,44.10
2019-04-04T06:36:34.728Z,44.00
2019-04-04T06:39:08.138Z,43.60
2019-04-04T06:41:38.960Z,43.60
2019-04-04T06:44:10.987Z,43.50
2019-04-04T06:46:42.232Z,42.90
2019-04-04T06:49:12.623Z,42.80
2019-04-04T06:51:46.123Z,42.90
2019-04-04T06:54:15.336Z,42.80
2019-04-04T06:56:46.132Z,42.50
2019-04-04T06:59:16.557Z,42.50
2019-04-04T07:01:47.309Z,42.10
2019-04-04T07:04:18.451Z,42.30
2019-04-04T07:06:48.790Z,42.00
2019-04-04T07:09:19.301Z,41.20
2019-04-04T07:11:49.652Z,41.20
2019-04-04T07:14:20.346Z,41.50
2019-04-04T07:16:50.855Z,41.30
2019-04-04T07:19:22.973Z,40.90
2019-04-04T07:21:53.704Z,40.90
2019-04-04T07:24:24.193Z,40.10
2019-04-04T07:26:54.555Z,40.50
2019-04-04T07:29:25.990Z,39.90
2019-04-04T07:31:56.517Z,39.90
2019-04-04T07:34:26.908Z,39.60
2019-04-04T07:36:57.592Z,39.70
2019-04-04T07:39:31.972Z,39.70
2019-04-04T07:42:00.395Z,39.20
2019-04-04T07:44:30.879Z,39.10
2019-04-04T07:47:01.226Z,39.00
2019-04-04T07:49:32.389Z,38.30
2019-04-04T07:52:03.032Z,38.00
2019-04-04T07:54:33.436Z,38.40
2019-04-04T07:57:04.154Z,38.20
2019-04-04T07:59:35.260Z,37.50
2019-04-04T08:02:05.631Z,37.20
2019-04-04T08:04:36.438Z,37.30
2019-04-04T08:07:07.123Z,37.10
2019-04-04T08:09:37.871Z,37.10
2019-04-04T08:12:08.680Z,36.90
2019-04-04T08:14:39.435Z,36.90
2019-04-04T08:17:09.825Z,36.50
2019-04-04T08:19:40.514Z,36.60
2019-04-04T08:22:11.318Z,36.30
2019-04-04T08:24:42.196Z,36.50
2019-04-04T08:27:12.629Z,35.80
2019-04-04T08:29:43.405Z,34.20
2019-04-04T08:32:13.766Z,34.70
2019-04-04T08:34:44.830Z,34.00
2019-04-04T08:37:15.197Z,34.40
2019-04-04T08:39:45.556Z,34.60
2019-04-04T08:42:16.067Z,33.90
2019-04-04T08:44:46.401Z,33.30
2019-04-04T08:47:16.745Z,33.00
2019-04-04T08:49:47.141Z,32.90
2019-04-04T08:52:20.695Z,32.70
2019-04-04T08:54:49.579Z,32.90
2019-04-04T08:57:20.334Z,32.80
2019-04-04T08:59:51.056Z,32.30
2019-04-04T09:02:21.779Z,32.20
2019-04-04T09:04:52.389Z,32.20
2019-04-04T09:07:22.729Z,32.30
2019-04-04T09:09:53.533Z,32.00
2019-04-04T09:12:24.355Z,32.00
2019-04-04T09:14:54.729Z,31.50
2019-04-04T09:17:25.808Z,31.70
2019-04-04T09:19:56.602Z,31.60
2019-04-04T09:22:26.941Z,32.30
2019-04-04T09:24:57.890Z,31.70
2019-04-04T09:27:28.604Z,30.80
2019-04-04T09:29:59.260Z,30.60
2019-04-04T09:32:29.623Z,30.60
2019-04-04T09:35:00.047Z,30.80
2019-04-04T09:37:30.536Z,30.40
2019-04-04T09:40:01.281Z,30.90
2019-04-04T09:42:32.048Z,30.30
2019-04-04T09:45:02.390Z,30.20
2019-04-04T09:47:33.524Z,29.60
2019-04-04T09:50:10.627Z,29.70
2019-04-04T09:52:40.986Z,29.90
2019-04-04T09:55:11.787Z,29.40
2019-04-04T09:57:42.523Z,29.40
2019-04-04T10:00:16.511Z,29.50
2019-04-04T10:02:47.149Z,29.50
2019-04-04T10:05:18.772Z,29.30
2019-04-04T10:07:49.420Z,29.50
2019-04-04T10:10:19.818Z,28.70
2019-04-04T10:12:51.529Z,28.70
2019-04-04T10:15:21.988Z,28.30
2019-04-04T10:17:52.997Z,28.00
2019-04-04T10:20:23.333Z,28.30
2019-04-04T10:22:53.685Z,28.80
2019-04-04T10:25:24.412Z,29.10
2019-04-04T10:27:54.807Z,28.80
2019-04-04T10:30:25.168Z,28.80
2019-04-04T10:32:55.547Z,28.10
2019-04-04T10:35:26.579Z,28.30
2019-04-04T10:37:57.003Z,27.70
2019-04-04T10:40:27.680Z,28.50
2019-04-04T10:42:58.396Z,27.60
2019-04-04T10:45:29.026Z,26.90
2019-04-04T10:47:59.703Z,27.10
2019-04-04T10:50:30.299Z,26.70
2019-04-04T10:53:01.056Z,26.60
2019-04-04T10:55:31.441Z,26.70
2019-04-04T10:58:01.795Z,26.70
2019-04-04T11:00:32.147Z,26.70
2019-04-04T11:03:02.523Z,26.80
2019-04-04T11:05:35.343Z,26.80
2019-04-04T11:08:05.991Z,26.70
2019-04-04T11:10:36.446Z,27.20
2019-04-04T11:13:06.797Z,26.70
2019-04-04T11:15:37.155Z,26.70
2019-04-04T11:18:07.586Z,26.70
2019-04-04T11:20:37.951Z,26.70
2019-04-04T11:23:08.679Z,26.90
2019-04-04T11:25:39.079Z,26.90
2019-04-04T11:28:09.815Z,25.70
2019-04-04T11:30:40.459Z,25.60
2019-04-04T11:33:10.800Z,25.40
2019-04-04T11:35:41.182Z,25.20
2019-04-04T11:38:11.824Z,25.40
2019-04-04T11:40:42.481Z,25.80
2019-04-04T11:43:12.808Z,25.60
2019-04-04T11:45:43.688Z,25.00
2019-04-04T11:48:14.588Z,24.70
2019-04-04T11:50:45.302Z,25.30
2019-04-04T11:53:15.655Z,24.20
2019-04-04T11:55:46.079Z,24.50
2019-04-04T11:58:16.446Z,24.90
2019-04-04T12:00:48.617Z,23.80
2019-04-04T12:03:19.439Z,24.00
2019-04-04T12:05:49.796Z,24.60
2019-04-04T12:08:20.151Z,24.10
2019-04-04T12:10:50.503Z,24.20
2019-04-04T12:13:20.918Z,23.70
2019-04-04T12:15:51.266Z,23.80
2019-04-04T12:18:21.613Z,24.60
2019-04-04T12:20:52.003Z,24.20
2019-04-04T12:23:22.325Z,24.50
2019-04-04T12:25:53.375Z,24.40
2019-04-04T12:28:23.791Z,24.50
2019-04-04T12:30:54.440Z,24.40
2019-04-04T12:33:25.482Z,24.50
2019-04-04T12:35:56.211Z,24.60
2019-04-04T12:38:26.646Z,23.90
2019-04-04T12:40:56.999Z,24.00
2019-04-04T12:43:27.716Z,23.80
2019-04-04T12:45:58.069Z,24.00
2019-04-04T12:48:28.440Z,23.80
2019-04-04T12:50:58.781Z,23.60
2019-04-04T12:53:29.153Z,23.60
2019-04-04T12:55:59.797Z,23.10
2019-04-04T12:58:30.145Z,23.10
2019-04-04T13:01:00.543Z,22.90
2019-04-04T13:03:30.874Z,22.90
2019-04-04T13:06:01.223Z,23.10
2019-04-04T13:08:32.428Z,23.20
2019-04-04T13:11:03.160Z,23.00
2019-04-04T13:13:33.803Z,22.50
2019-04-04T13:16:04.522Z,22.60
2019-04-04T13:18:34.900Z,22.80
2019-04-04T13:21:05.311Z,22.70
2019-04-04T13:23:35.936Z,22.30
2019-04-04T13:26:06.666Z,22.50
2019-04-04T13:28:37.060Z,22.30
2019-04-04T13:31:07.783Z,22.00
2019-04-04T13:33:38.479Z,22.00
2019-04-04T13:36:09.379Z,21.90
2019-04-04T13:38:40.131Z,21.80
2019-04-04T13:41:21.413Z,22.60
2019-04-04T13:43:42.944Z,22.00
2019-04-04T13:46:13.968Z,21.90
2019-04-04T13:48:44.335Z,22.10
2019-04-04T13:51:14.767Z,21.10
2019-04-04T13:53:45.136Z,20.90
2019-04-04T13:56:15.529Z,21.00
2019-04-04T13:58:47.491Z,21.70
2019-04-04T14:01:18.306Z,20.90
2019-04-04T14:03:49.027Z,20.90
2019-04-04T14:06:19.406Z,21.50
2019-04-04T14:08:49.781Z,21.40
2019-04-04T14:11:20.135Z,21.00
2019-04-04T14:13:50.486Z,21.70
2019-04-04T14:16:20.862Z,21.70
2019-04-04T14:18:51.216Z,21.00
2019-04-04T14:21:22.311Z,20.90
2019-04-04T14:23:53.132Z,21.10
2019-04-04T14:26:23.880Z,21.20
2019-04-04T14:28:54.279Z,21.00
2019-04-04T14:31:24.977Z,20.90
2019-04-04T14:33:55.326Z,20.90
2019-04-04T14:36:26.138Z,20.90
2019-04-04T14:38:56.603Z,21.20
2019-04-04T14:41:26.933Z,20.90
2019-04-04T14:43:59.940Z,21.10
2019-04-04T14:46:29.613Z,21.60
2019-04-04T14:49:00.340Z,21.70
2019-04-04T14:51:31.274Z,21.70
2019-04-04T14:54:01.997Z,21.70
2019-04-04T14:56:33.467Z,21.60
2019-04-04T14:59:04.181Z,21.60
2019-04-04T15:01:35.169Z,21.70
2019-04-04T15:04:05.690Z,21.60
2019-04-04T15:06:36.091Z,21.60
2019-04-04T15:09:09.371Z,21.60
2019-04-04T15:11:40.026Z,21.70
2019-04-04T15:14:10.775Z,21.70
2019-04-04T15:16:41.394Z,21.60
2019-04-04T15:19:11.788Z,21.30
2019-04-04T15:21:42.121Z,21.20
2019-04-04T15:24:12.786Z,21.80
2019-04-04T15:26:43.846Z,21.40
2019-04-04T15:29:14.220Z,21.30
2019-04-04T15:31:44.894Z,21.80
2019-04-04T15:34:15.246Z,21.60
2019-04-04T15:36:46.260Z,21.20
2019-04-04T15:39:16.901Z,20.90
2019-04-04T15:41:47.245Z,20.70
2019-04-04T15:44:17.992Z,20.70
2019-04-04T15:46:48.824Z,21.10
2019-04-04T15:49:19.513Z,21.20
2019-04-04T15:51:49.872Z,20.50
2019-04-04T15:54:20.626Z,21.10
2019-04-04T15:56:50.972Z,21.00
2019-04-04T15:59:21.679Z,21.50
2019-04-04T16:01:52.322Z,21.50
2019-04-04T16:04:22.675Z,21.60
2019-04-04T16:06:53.305Z,21.80
2019-04-04T16:09:23.704Z,21.70
2019-04-04T16:11:54.067Z,21.30
2019-04-04T16:14:24.810Z,21.30
2019-04-04T16:16:55.232Z,21.60
2019-04-04T16:19:25.581Z,20.90
2019-04-04T16:21:56.322Z,21.10
2019-04-04T16:24:27.071Z,21.30
2019-04-04T16:26:57.870Z,21.30
2019-04-04T16:29:28.497Z,21.20
2019-04-04T16:31:59.363Z,21.10
2019-04-04T16:34:29.715Z,21.10
2019-04-04T16:37:00.165Z,21.30
2019-04-04T16:39:30.992Z,21.60
2019-04-04T16:42:02.632Z,21.70
2019-04-04T16:44:33.397Z,21.70
2019-04-04T16:47:04.214Z,22.10
2019-04-04T16:49:34.830Z,22.20
2019-04-04T16:52:07.205Z,22.10
2019-04-04T16:54:38.373Z,22.40
2019-04-04T16:57:09.490Z,22.90
2019-04-04T16:59:40.992Z,23.30
2019-04-04T17:02:11.352Z,23.40
2019-04-04T17:04:41.966Z,23.30
2019-04-04T17:07:12.333Z,23.80
2019-04-04T17:09:43.083Z,24.10
2019-04-04T17:12:15.037Z,24.40
2019-04-04T17:14:45.888Z,24.70
2019-04-04T17:17:16.251Z,24.80
2019-04-04T17:19:46.571Z,24.70
2019-04-04T17:22:17.287Z,24.60
2019-04-04T17:24:47.613Z,24.80
2019-04-04T17:27:18.542Z,25.20
2019-04-04T17:29:49.190Z,25.30
2019-04-04T17:32:19.519Z,25.60
2019-04-04T17:34:50.306Z,25.50
2019-04-04T17:37:20.734Z,25.80
2019-04-04T17:39:51.466Z,25.80
2019-04-04T17:42:28.999Z,26.10
2019-04-04T17:44:53.944Z,26.00
2019-04-04T17:47:24.330Z,25.90
2019-04-04T17:49:54.783Z,25.90
2019-04-04T17:52:25.326Z,25.80
2019-04-04T17:54:56.029Z,25.90
2019-04-04T17:57:26.383Z,26.30
2019-04-04T17:59:56.763Z,26.00
2019-04-04T18:02:27.356Z,26.50
2019-04-04T18:04:57.734Z,26.60
2019-04-04T18:07:28.477Z,26.90
2019-04-04T18:09:58.856Z,27.10
2019-04-04T18:12:39.718Z,27.10
2019-04-04T18:15:02.208Z,27.20
2019-04-04T18:17:32.841Z,27.10
2019-04-04T18:20:04.806Z,27.30
2019-04-04T18:22:35.476Z,27.40
2019-04-04T18:25:07.287Z,27.50
2019-04-04T18:27:37.625Z,27.50
2019-04-04T18:30:10.799Z,27.80
2019-04-04T18:32:41.216Z,27.60
2019-04-04T18:35:11.892Z,28.00
2019-04-04T18:37:42.980Z,28.20
2019-04-04T18:40:13.343Z,28.40
2019-04-04T18:42:53.219Z,28.50
2019-04-04T18:45:15.806Z,28.80
2019-04-04T18:47:46.699Z,29.00
2019-04-04T18:50:17.340Z,29.20
2019-04-04T18:52:47.735Z,29.40
2019-04-04T18:55:20.155Z,29.40
2019-04-04T18:57:50.645Z,29.60
2019-04-04T19:00:20.993Z,29.80
2019-04-04T19:02:51.887Z,29.90
2019-04-04T19:05:22.612Z,30.80
2019-04-04T19:07:52.978Z,31.00
2019-04-04T19:10:23.755Z,31.40
2019-04-04T19:13:04.838Z,31.40
2019-04-04T19:15:26.278Z,31.80
2019-04-04T19:17:56.991Z,32.40
2019-04-04T19:20:28.027Z,32.30
2019-04-04T19:22:58.391Z,32.50
2019-04-04T19:25:29.417Z,33.10
2019-04-04T19:28:00.124Z,33.20
2019-04-04T19:30:30.937Z,33.20
2019-04-04T19:33:01.589Z,33.20
2019-04-04T19:35:31.944Z,33.20
2019-04-04T19:38:02.303Z,33.20
2019-04-04T19:40:33.308Z,33.10
2019-04-04T19:43:04.149Z,33.20
2019-04-04T19:45:34.764Z,33.70
2019-04-04T19:48:05.476Z,33.30
2019-04-04T19:50:39.025Z,33.40
2019-04-04T19:53:08.518Z,33.00
2019-04-04T19:55:38.845Z,32.90
2019-04-04T19:58:09.685Z,32.70
2019-04-04T20:00:40.428Z,32.60
2019-04-04T20:03:11.155Z,32.60
2019-04-04T20:05:44.336Z,32.80
2019-04-04T20:08:13.952Z,32.80
2019-04-04T20:10:44.308Z,32.80
2019-04-04T20:13:15.083Z,32.70
2019-04-04T20:15:45.446Z,32.70
2019-04-04T20:18:16.090Z,32.80
2019-04-04T20:20:46.684Z,32.70
2019-04-04T20:23:17.092Z,32.70
2019-04-04T20:25:48.186Z,32.60
2019-04-04T20:28:18.662Z,32.70
2019-04-04T20:30:49.072Z,32.90
2019-04-04T20:33:19.853Z,33.00
2019-04-04T20:35:50.394Z,33.10
2019-04-04T20:38:20.778Z,33.20
2019-04-04T20:40:51.206Z,33.30
2019-04-04T20:43:26.401Z,33.30
2019-04-04T20:45:56.778Z,33.40
2019-04-04T20:48:27.161Z,33.40
2019-04-04T20:50:58.241Z,33.60
2019-04-04T20:53:28.643Z,33.60
2019-04-04T20:55:59.275Z,33.50
2019-04-04T20:58:29.631Z,33.80
2019-04-04T21:01:00.070Z,34.00
2019-04-04T21:03:30.872Z,34.10
2019-04-04T21:06:01.723Z,34.10
2019-04-04T21:08:32.410Z,34.10
2019-04-04T21:11:03.130Z,34.40
2019-04-04T21:13:33.880Z,34.30
2019-04-04T21:16:04.259Z,34.30
2019-04-04T21:18:34.712Z,34.50
2019-04-04T21:21:05.358Z,34.40
2019-04-04T21:23:35.795Z,34.50
2019-04-04T21:26:06.553Z,34.70
2019-04-04T21:28:37.212Z,34.80
2019-04-04T21:31:07.540Z,34.80
2019-04-04T21:33:37.942Z,34.90
2019-04-04T21:36:08.308Z,35.70
2019-04-04T21:38:38.760Z,35.20
2019-04-04T21:41:09.097Z,35.30
2019-04-04T21:43:39.494Z,35.50
2019-04-04T21:46:09.857Z,35.60
2019-04-04T21:48:40.548Z,35.80
2019-04-04T21:51:11.553Z,35.70
2019-04-04T21:53:42.619Z,36.00
2019-04-04T21:56:12.980Z,36.00
2019-04-04T21:58:43.419Z,36.00
2019-04-04T22:01:19.526Z,35.90
2019-04-04T22:03:50.699Z,35.90
2019-04-04T22:06:21.184Z,36.10
2019-04-04T22:08:51.547Z,36.00
2019-04-04T22:11:21.947Z,36.10
2019-04-04T22:13:52.584Z,36.20
2019-04-04T22:16:23.665Z,36.80
2019-04-04T22:18:54.056Z,36.80
2019-04-04T22:21:24.398Z,36.90
2019-04-04T22:24:14.560Z,37.00
2019-04-04T22:26:45.350Z,37.10
2019-04-04T22:29:16.086Z,37.00
2019-04-04T22:31:46.445Z,37.30
2019-04-04T22:34:16.819Z,37.30
2019-04-04T22:36:47.176Z,37.60
2019-04-04T22:39:17.570Z,37.50
2019-04-04T22:41:47.938Z,37.70
2019-04-04T22:44:18.753Z,37.70
2019-04-04T22:46:49.238Z,37.60
2019-04-04T22:49:20.125Z,37.70
2019-04-04T22:51:51.060Z,37.90
2019-04-04T22:54:21.818Z,38.10
2019-04-04T22:56:53.430Z,38.10
2019-04-04T22:59:24.143Z,38.40
2019-04-04T23:01:54.531Z,38.20
2019-04-04T23:04:24.964Z,38.30
2019-04-04T23:06:55.327Z,38.30
2019-04-04T23:09:25.890Z,38.50
2019-04-04T23:11:56.219Z,39.30
2019-04-04T23:14:26.586Z,39.00
2019-04-04T23:16:57.306Z,39.00
2019-04-04T23:19:28.044Z,39.10
2019-04-04T23:21:58.373Z,39.10
2019-04-04T23:24:28.932Z,39.50
2019-04-04T23:26:59.681Z,39.60
2019-04-04T23:29:30.073Z,39.70
2019-04-04T23:32:00.447Z,39.70
2019-04-04T23:34:30.784Z,39.70
2019-04-04T23:37:01.490Z,39.70
2019-04-04T23:39:32.541Z,39.50
2019-04-04T23:42:02.886Z,39.60
2019-04-04T23:44:33.590Z,39.60
2019-04-04T23:47:04.269Z,39.60
2019-04-04T23:49:34.782Z,39.50
2019-04-04T23:52:05.125Z,39.50
2019-04-04T23:54:35.909Z,40.10
2019-04-04T23:57:06.681Z,39.60
2019-04-04T23:59:37.748Z,39.50
